createdAt,value
2022-08-22T00:03:10.471Z,13.72
2022-08-22T00:03:12.734Z,14.34
2022-08-22T00:04:07.815Z,13.67
2022-08-22T00:06:43.903Z,13.63
2022-08-22T00:09:37.831Z,13.59
2022-08-22T00:12:19.791Z,13.56
2022-08-22T00:15:42.256Z,13.53
2022-08-22T00:18:20.320Z,13.55
2022-08-22T00:21:05.815Z,13.49
2022-08-22T00:23:45.609Z,13.45
2022-08-22T00:26:30.124Z,13.43
2022-08-22T00:29:02.940Z,13.41
2022-08-22T00:31:35.156Z,13.41
2022-08-22T00:34:08.206Z,13.32
2022-08-22T00:36:59.116Z,13.25
2022-08-22T00:39:31.629Z,13.19
2022-08-22T00:42:10.462Z,13.15
2022-08-22T00:44:43.095Z,13.11
2022-08-22T00:47:32.163Z,13.08
2022-08-22T00:50:17.749Z,12.98
2022-08-22T00:53:02.644Z,12.97
2022-08-22T00:55:32.160Z,12.93
2022-08-22T00:58:38.805Z,12.90
2022-08-22T01:01:09.837Z,12.88
2022-08-22T01:03:42.250Z,12.85
2022-08-22T01:06:44.069Z,12.83
2022-08-22T01:09:25.908Z,12.79
2022-08-22T01:12:11.873Z,12.76
2022-08-22T01:14:48.278Z,12.71
2022-08-22T01:17:35.866Z,12.65
2022-08-22T01:20:50.395Z,12.63
2022-08-22T01:23:19.576Z,12.57
2022-08-22T01:26:30.140Z,12.54
2022-08-22T01:29:11.608Z,12.52
2022-08-22T01:32:15.645Z,12.54
2022-08-22T01:34:54.047Z,12.50
2022-08-22T01:37:53.950Z,12.50
2022-08-22T01:40:35.940Z,12.43
2022-08-22T01:43:59.062Z,12.39
2022-08-22T01:46:46.550Z,12.39
2022-08-22T01:49:29.562Z,12.36
2022-08-22T01:52:04.166Z,12.30
2022-08-22T01:54:43.390Z,12.29
2022-08-22T01:57:11.305Z,12.23
2022-08-22T01:59:44.176Z,12.26
2022-08-22T02:02:32.069Z,12.26
2022-08-22T02:05:22.008Z,12.21
2022-08-22T02:08:10.247Z,12.13
2022-08-22T02:11:01.471Z,12.12
2022-08-22T02:13:49.844Z,12.05
2022-08-22T02:16:36.185Z,12.05
2022-08-22T02:19:11.698Z,12.01
2022-08-22T02:22:04.455Z,12.01
2022-08-22T02:24:33.577Z,12.02
2022-08-22T02:27:35.338Z,12.02
2022-08-22T02:30:13.032Z,11.98
2022-08-22T02:32:58.219Z,11.95
2022-08-22T02:35:35.526Z,11.92
2022-08-22T02:38:42.797Z,11.94
2022-08-22T02:41:09.136Z,11.88
2022-08-22T02:43:43.693Z,11.86
2022-08-22T02:46:30.088Z,11.85
2022-08-22T02:49:23.103Z,11.79
2022-08-22T02:52:14.525Z,11.82
2022-08-22T02:55:00.782Z,11.79
2022-08-22T02:57:39.691Z,11.79
2022-08-22T03:00:32.673Z,11.82
2022-08-22T03:02:59.469Z,11.85
2022-08-22T03:05:28.769Z,11.86
2022-08-22T03:08:24.915Z,11.84
2022-08-22T03:11:24.352Z,11.85
2022-08-22T03:14:04.766Z,11.88
2022-08-22T03:16:48.540Z,11.92
2022-08-22T03:19:49.317Z,11.99
2022-08-22T03:22:35.952Z,12.03
2022-08-22T03:25:14.484Z,12.06
2022-08-22T03:27:49.467Z,12.08
2022-08-22T03:30:21.765Z,12.13
2022-08-22T03:32:52.060Z,12.13
2022-08-22T03:35:49.780Z,12.15
2022-08-22T03:38:34.538Z,12.11
2022-08-22T03:41:09.932Z,12.08
2022-08-22T03:43:58.273Z,12.06
2022-08-22T03:47:01.947Z,12.03
2022-08-22T03:49:48.660Z,12.03
2022-08-22T03:52:59.986Z,12.05
2022-08-22T03:55:52.145Z,12.03
2022-08-22T03:58:30.664Z,12.03
2022-08-22T04:01:23.384Z,11.99
2022-08-22T04:03:59.902Z,12.03
2022-08-22T04:06:45.251Z,12.03
2022-08-22T04:09:44.501Z,11.98
2022-08-22T04:12:41.227Z,11.95
2022-08-22T04:15:39.710Z,11.94
2022-08-22T04:18:41.715Z,11.92
2022-08-22T04:21:11.765Z,11.95
2022-08-22T04:24:10.933Z,11.95
2022-08-22T04:26:58.078Z,12.02
2022-08-22T04:29:27.494Z,12.08
2022-08-22T04:32:04.019Z,12.19
2022-08-22T04:34:37.598Z,12.32
2022-08-22T04:37:14.595Z,12.40
2022-08-22T04:39:58.855Z,12.52
2022-08-22T04:42:47.878Z,12.61
2022-08-22T04:45:23.785Z,12.71
2022-08-22T04:47:56.877Z,12.77
2022-08-22T04:50:28.917Z,12.83
2022-08-22T04:53:32.601Z,12.87
2022-08-22T04:56:10.531Z,12.88
2022-08-22T04:59:01.257Z,12.94
2022-08-22T05:01:47.995Z,12.97
2022-08-22T05:04:30.533Z,12.98
2022-08-22T05:07:05.292Z,13.02
2022-08-22T05:09:36.011Z,13.07
2022-08-22T05:12:11.913Z,13.11
2022-08-22T05:14:44.568Z,13.11
2022-08-22T05:17:17.046Z,13.19
2022-08-22T05:19:50.605Z,13.19
2022-08-22T05:22:23.793Z,13.19
2022-08-22T05:24:56.284Z,13.25
2022-08-22T05:27:30.491Z,13.32
2022-08-22T05:30:18.685Z,13.38
2022-08-22T05:32:53.053Z,13.46
2022-08-22T05:35:32.685Z,13.52
2022-08-22T05:37:59.952Z,13.62
2022-08-22T05:40:29.105Z,13.70
2022-08-22T05:42:57.693Z,13.83
2022-08-22T05:45:26.364Z,13.94
2022-08-22T05:48:00.026Z,14.09
2022-08-22T05:50:37.860Z,14.27
2022-08-22T05:53:20.451Z,14.52
2022-08-22T05:55:49.923Z,14.91
2022-08-22T05:58:43.742Z,15.39
2022-08-22T06:01:35.349Z,15.91
2022-08-22T06:04:37.599Z,16.39
2022-08-22T06:07:23.465Z,16.80
2022-08-22T06:10:32.978Z,17.20
2022-08-22T06:13:14.053Z,17.48
2022-08-22T06:15:56.948Z,17.63
2022-08-22T06:18:26.908Z,17.76
2022-08-22T06:21:00.647Z,17.97
2022-08-22T06:23:33.803Z,18.16
2022-08-22T06:26:01.759Z,18.37
2022-08-22T06:28:34.249Z,18.64
2022-08-22T06:31:03.447Z,18.85
2022-08-22T06:33:35.128Z,19.10
2022-08-22T06:36:25.425Z,19.32
2022-08-22T06:38:53.857Z,19.41
2022-08-22T06:41:22.783Z,19.54
2022-08-22T06:43:52.695Z,19.64
2022-08-22T06:46:22.117Z,19.70
2022-08-22T06:48:49.133Z,19.74
2022-08-22T06:51:17.843Z,19.80
2022-08-22T06:53:48.475Z,19.88
2022-08-22T06:56:25.347Z,20.00
2022-08-22T06:58:58.454Z,20.12
2022-08-22T07:01:31.072Z,20.25
2022-08-22T07:04:08.147Z,20.43
2022-08-22T07:06:41.485Z,20.55
2022-08-22T07:09:19.814Z,20.68
2022-08-22T07:11:46.685Z,20.87
2022-08-22T07:14:17.314Z,21.20
2022-08-22T07:16:57.620Z,21.57
2022-08-22T07:19:28.190Z,21.93
2022-08-22T07:21:55.897Z,22.21
2022-08-22T07:24:28.377Z,22.57
2022-08-22T07:27:04.707Z,22.92
2022-08-22T07:30:13.931Z,23.23
2022-08-22T07:32:46.248Z,23.52
2022-08-22T07:35:17.639Z,23.66
2022-08-22T07:37:53.568Z,23.73
2022-08-22T07:40:41.699Z,23.77
2022-08-22T07:43:26.880Z,23.73
2022-08-22T07:46:19.229Z,23.74
2022-08-22T07:49:08.105Z,23.67
2022-08-22T07:51:42.972Z,23.50
2022-08-22T07:54:14.210Z,23.42
2022-08-22T07:56:46.450Z,23.32
2022-08-22T07:59:17.169Z,23.35
2022-08-22T08:01:46.777Z,23.39
2022-08-22T08:04:18.939Z,23.59
2022-08-22T08:06:50.671Z,23.70
2022-08-22T08:09:19.615Z,23.96
2022-08-22T08:11:51.784Z,24.18
2022-08-22T08:14:21.900Z,24.58
2022-08-22T08:16:51.312Z,24.83
2022-08-22T08:19:19.842Z,25.12
2022-08-22T08:21:53.576Z,25.43
2022-08-22T08:24:28.920Z,25.63
2022-08-22T08:27:25.237Z,25.89
2022-08-22T08:29:58.817Z,26.15
2022-08-22T08:32:30.210Z,26.42
2022-08-22T08:34:56.707Z,26.64
2022-08-22T08:37:33.390Z,26.79
2022-08-22T08:40:02.619Z,26.70
2022-08-22T08:43:10.915Z,26.70
2022-08-22T08:46:15.016Z,26.95
2022-08-22T08:49:25.195Z,27.04
2022-08-22T08:52:21.126Z,27.10
2022-08-22T08:55:21.925Z,27.30
2022-08-22T08:58:06.736Z,27.46
2022-08-22T09:00:45.766Z,27.52
2022-08-22T09:03:53.099Z,27.49
2022-08-22T09:06:52.918Z,27.46
2022-08-22T09:09:41.705Z,27.42
2022-08-22T09:12:56.149Z,27.27
2022-08-22T09:16:02.249Z,27.21
2022-08-22T09:18:51.075Z,27.08
2022-08-22T09:21:30.535Z,27.12
2022-08-22T09:24:23.261Z,27.08
2022-08-22T09:26:57.225Z,27.12
2022-08-22T09:29:54.496Z,26.95
2022-08-22T09:32:42.902Z,27.12
2022-08-22T09:38:34.627Z,27.33
2022-08-22T09:40:16.124Z,27.34
2022-08-22T09:41:13.496Z,27.97
2022-08-22T09:43:52.184Z,28.12
2022-08-22T09:46:29.444Z,28.58
2022-08-22T09:49:16.572Z,28.87
2022-08-22T09:51:54.967Z,29.03
2022-08-22T09:54:35.782Z,29.40
2022-08-22T09:57:16.628Z,29.77
2022-08-22T10:00:16.281Z,30.00
2022-08-22T10:03:32.983Z,30.11
2022-08-22T10:06:12.717Z,30.01
2022-08-22T10:08:56.453Z,29.94
2022-08-22T10:11:26.818Z,29.87
2022-08-22T10:14:08.029Z,29.43
2022-08-22T10:17:11.774Z,29.39
2022-08-22T10:19:40.778Z,29.42
2022-08-22T10:22:23.049Z,29.80
2022-08-22T10:25:07.918Z,29.73
2022-08-22T10:27:40.303Z,30.01
2022-08-22T10:30:13.365Z,30.51
2022-08-22T10:32:59.123Z,30.68
2022-08-22T10:35:40.694Z,30.78
2022-08-22T10:38:15.473Z,30.84
2022-08-22T10:40:53.069Z,30.82
2022-08-22T10:43:21.827Z,30.71
2022-08-22T10:46:03.625Z,30.61
2022-08-22T10:48:47.063Z,30.52
2022-08-22T10:51:35.546Z,30.43
2022-08-22T10:54:29.315Z,30.68
2022-08-22T10:57:31.210Z,30.49
2022-08-22T11:00:25.618Z,30.41
2022-08-22T11:03:20.008Z,31.07
2022-08-22T11:05:50.818Z,31.70
2022-08-22T11:08:34.601Z,31.68
2022-08-22T11:11:04.120Z,31.11
2022-08-22T11:14:08.341Z,30.61
2022-08-22T11:16:46.815Z,29.72
2022-08-22T11:19:38.374Z,29.56
2022-08-22T11:22:42.521Z,29.03
2022-08-22T11:25:13.398Z,29.32
2022-08-22T11:28:00.800Z,29.74
2022-08-22T11:30:36.421Z,30.24
2022-08-22T11:33:32.509Z,30.18
2022-08-22T11:36:33.422Z,29.64
2022-08-22T11:39:10.000Z,29.96
2022-08-22T11:41:52.412Z,29.11
2022-08-22T11:44:50.082Z,28.75
2022-08-22T11:47:26.876Z,29.42
2022-08-22T11:50:25.149Z,30.73
2022-08-22T11:53:11.702Z,31.85
2022-08-22T11:55:50.943Z,32.30
2022-08-22T11:58:33.488Z,32.77
2022-08-22T12:01:17.408Z,32.33
2022-08-22T12:03:58.654Z,31.60
2022-08-22T12:06:51.309Z,30.82
2022-08-22T12:09:47.733Z,30.24
2022-08-22T12:12:20.230Z,29.88
2022-08-22T12:15:21.601Z,30.00
2022-08-22T12:18:21.298Z,30.24
2022-08-22T12:21:31.733Z,30.72
2022-08-22T12:24:19.246Z,30.42
2022-08-22T12:27:07.769Z,30.03
2022-08-22T12:30:13.830Z,29.42
2022-08-22T12:33:23.306Z,28.99
2022-08-22T12:35:57.074Z,29.13
2022-08-22T12:38:37.977Z,29.11
2022-08-22T12:41:28.219Z,29.03
2022-08-22T12:44:37.044Z,28.79
2022-08-22T12:47:12.297Z,28.75
2022-08-22T12:50:03.282Z,28.90
2022-08-22T12:52:38.827Z,28.74
2022-08-22T12:55:26.762Z,28.87
2022-08-22T12:58:20.086Z,28.82
2022-08-22T13:00:49.051Z,28.74
2022-08-22T13:03:29.779Z,28.51
2022-08-22T13:06:00.199Z,28.36
2022-08-22T13:08:32.559Z,28.30
2022-08-22T13:11:22.253Z,28.34
2022-08-22T13:13:56.457Z,28.24
2022-08-22T13:16:26.103Z,28.17
2022-08-22T13:18:57.552Z,28.07
2022-08-22T13:21:36.530Z,28.07
2022-08-22T13:24:52.644Z,27.90
2022-08-22T13:27:40.052Z,27.75
2022-08-22T13:30:31.836Z,27.49
2022-08-22T13:33:04.441Z,27.44
2022-08-22T13:35:51.673Z,27.34
2022-08-22T13:38:26.164Z,27.14
2022-08-22T13:40:55.504Z,27.10
2022-08-22T13:43:28.052Z,27.08
2022-08-22T13:46:01.826Z,27.01
2022-08-22T13:48:49.875Z,26.91
2022-08-22T13:51:56.713Z,26.90
2022-08-22T13:54:55.687Z,26.86
2022-08-22T13:57:38.672Z,26.79
2022-08-22T14:00:28.838Z,26.63
2022-08-22T14:03:05.557Z,26.43
2022-08-22T14:05:39.100Z,26.42
2022-08-22T14:08:18.505Z,26.32
2022-08-22T14:11:10.246Z,26.22
2022-08-22T14:13:44.613Z,26.12
2022-08-22T14:16:24.569Z,26.02
2022-08-22T14:18:57.690Z,25.88
2022-08-22T14:21:40.513Z,25.92
2022-08-22T14:24:27.218Z,25.77
2022-08-22T14:27:05.255Z,25.65
2022-08-22T14:29:50.378Z,25.64
2022-08-22T14:32:25.847Z,25.64
2022-08-22T14:35:01.708Z,25.57
2022-08-22T14:37:39.338Z,25.53
2022-08-22T14:40:09.604Z,25.40
2022-08-22T14:42:50.844Z,25.40
2022-08-22T14:45:30.453Z,25.23
2022-08-22T14:48:30.660Z,25.12
2022-08-22T14:51:00.850Z,24.99
2022-08-22T14:53:33.022Z,25.03
2022-08-22T14:56:05.482Z,24.90
2022-08-22T14:58:36.875Z,25.02
2022-08-22T15:01:10.840Z,24.93
2022-08-22T15:03:40.298Z,24.90
2022-08-22T15:06:13.424Z,24.93
2022-08-22T15:08:46.328Z,25.02
2022-08-22T15:11:21.869Z,25.07
2022-08-22T15:14:02.731Z,25.07
2022-08-22T15:16:56.012Z,25.07
2022-08-22T15:19:46.975Z,25.03
2022-08-22T15:22:27.698Z,25.06
2022-08-22T15:25:04.059Z,25.02
2022-08-22T15:27:35.629Z,24.96
2022-08-22T15:30:07.563Z,24.92
2022-08-22T15:32:48.835Z,24.92
2022-08-22T15:35:27.832Z,25.00
2022-08-22T15:38:01.739Z,24.99
2022-08-22T15:40:41.493Z,25.00
2022-08-22T15:43:35.245Z,25.09
2022-08-22T15:46:18.143Z,24.95
2022-08-22T15:48:54.626Z,24.95
2022-08-22T15:51:37.993Z,24.93
2022-08-22T15:54:24.830Z,25.02
2022-08-22T15:56:55.936Z,25.03
2022-08-22T15:59:31.431Z,24.87
2022-08-22T16:02:23.483Z,24.68
2022-08-22T16:04:54.480Z,24.57
2022-08-22T16:07:42.414Z,24.68
2022-08-22T16:10:24.059Z,24.45
2022-08-22T16:13:14.429Z,24.29
2022-08-22T16:15:46.880Z,24.08
2022-08-22T16:18:36.840Z,23.98
2022-08-22T16:21:08.400Z,23.88
2022-08-22T16:23:49.884Z,23.80
2022-08-22T16:26:31.289Z,23.57
2022-08-22T16:29:07.100Z,23.41
2022-08-22T16:31:48.829Z,23.29
2022-08-22T16:34:18.280Z,23.28
2022-08-22T16:37:08.064Z,23.18
2022-08-22T16:39:34.420Z,23.14
2022-08-22T16:42:13.058Z,23.12
2022-08-22T16:44:55.651Z,23.01
2022-08-22T16:47:32.593Z,22.99
2022-08-22T16:50:26.943Z,22.92
2022-08-22T16:52:58.254Z,22.91
2022-08-22T16:55:30.633Z,23.02
2022-08-22T16:58:18.128Z,22.88
2022-08-22T17:01:18.314Z,22.81
2022-08-22T17:04:00.052Z,22.65
2022-08-22T17:06:52.691Z,22.50
2022-08-22T17:09:49.219Z,22.47
2022-08-22T17:12:38.516Z,22.36
2022-08-22T17:15:23.257Z,22.17
2022-08-22T17:18:11.686Z,22.17
2022-08-22T17:21:00.629Z,22.02
2022-08-22T17:23:53.954Z,21.89
2022-08-22T17:26:30.837Z,21.86
2022-08-22T17:29:03.376Z,21.98
2022-08-22T17:31:59.341Z,21.89
2022-08-22T17:34:37.880Z,21.88
2022-08-22T17:37:17.977Z,21.99
2022-08-22T17:40:06.390Z,21.92
2022-08-22T17:42:37.523Z,21.90
2022-08-22T17:45:24.512Z,21.86
2022-08-22T17:48:12.031Z,21.77
2022-08-22T17:50:47.972Z,21.69
2022-08-22T17:53:30.372Z,21.68
2022-08-22T17:56:14.494Z,21.59
2022-08-22T17:58:54.285Z,21.41
2022-08-22T18:01:47.896Z,21.30
2022-08-22T18:04:22.207Z,21.23
2022-08-22T18:06:56.546Z,21.12
2022-08-22T18:09:31.215Z,21.10
2022-08-22T18:12:07.920Z,21.08
2022-08-22T18:14:55.139Z,21.00
2022-08-22T18:17:33.259Z,20.94
2022-08-22T18:20:16.868Z,20.96
2022-08-22T18:22:48.631Z,20.93
2022-08-22T18:25:18.131Z,20.86
2022-08-22T18:28:08.187Z,20.81
2022-08-22T18:30:49.047Z,20.70
2022-08-22T18:33:40.533Z,20.63
2022-08-22T18:36:10.633Z,20.66
2022-08-22T18:38:54.109Z,20.70
2022-08-22T18:41:28.629Z,20.70
2022-08-22T18:43:58.538Z,20.62
2022-08-22T18:46:27.541Z,20.57
2022-08-22T18:49:14.562Z,20.50
2022-08-22T18:51:41.619Z,20.48
2022-08-22T18:54:07.971Z,20.38
2022-08-22T18:56:43.387Z,20.32
2022-08-22T18:59:26.934Z,20.33
2022-08-22T19:02:37.171Z,20.24
2022-08-22T19:05:18.797Z,20.22
2022-08-22T19:07:57.239Z,20.14
2022-08-22T19:10:46.594Z,20.18
2022-08-22T19:13:43.065Z,20.07
2022-08-22T19:16:57.164Z,19.85
2022-08-22T19:20:01.198Z,19.85
2022-08-22T19:22:34.395Z,19.78
2022-08-22T19:25:15.711Z,19.75
2022-08-22T19:28:14.148Z,19.63
2022-08-22T19:30:41.028Z,19.54
2022-08-22T19:33:12.188Z,19.43
2022-08-22T19:35:41.429Z,19.33
2022-08-22T19:38:09.600Z,19.26
2022-08-22T19:40:44.788Z,19.18
2022-08-22T19:43:29.979Z,19.08
2022-08-22T19:45:58.599Z,19.03
2022-08-22T19:48:44.430Z,18.95
2022-08-22T19:51:12.769Z,18.88
2022-08-22T19:53:47.333Z,18.85
2022-08-22T19:56:43.519Z,18.82
2022-08-22T19:59:21.836Z,18.78
2022-08-22T20:02:01.863Z,18.71
2022-08-22T20:04:50.614Z,18.69
2022-08-22T20:07:52.985Z,18.65
2022-08-22T20:10:25.239Z,18.60
2022-08-22T20:13:10.266Z,18.57
2022-08-22T20:16:01.451Z,18.55
2022-08-22T20:19:06.597Z,18.50
2022-08-22T20:21:55.078Z,18.52
2022-08-22T20:24:44.124Z,18.48
2022-08-22T20:27:18.123Z,18.48
2022-08-22T20:29:52.988Z,18.45
2022-08-22T20:32:23.206Z,18.43
2022-08-22T20:34:55.180Z,18.38
2022-08-22T20:37:40.200Z,18.33
2022-08-22T20:40:54.639Z,18.27
2022-08-22T20:43:47.292Z,18.23
2022-08-22T20:46:54.983Z,18.18
2022-08-22T20:49:23.948Z,18.18
2022-08-22T20:51:54.982Z,18.14
2022-08-22T20:54:25.372Z,18.13
2022-08-22T20:57:10.100Z,18.06
2022-08-22T20:59:59.334Z,18.01
2022-08-22T21:02:33.804Z,17.96
2022-08-22T21:05:18.490Z,17.90
2022-08-22T21:07:48.553Z,17.82
2022-08-22T21:10:40.135Z,17.79
2022-08-22T21:13:10.732Z,17.75
2022-08-22T21:15:57.587Z,17.68
2022-08-22T21:18:32.058Z,17.66
2022-08-22T21:21:34.474Z,17.61
2022-08-22T21:24:06.422Z,17.59
2022-08-22T21:26:37.513Z,17.55
2022-08-22T21:29:13.085Z,17.53
2022-08-22T21:31:44.538Z,17.52
2022-08-22T21:34:17.222Z,17.51
2022-08-22T21:36:43.851Z,17.48
2022-08-22T21:39:19.705Z,17.45
2022-08-22T21:42:01.449Z,17.41
2022-08-22T21:44:30.949Z,17.36
2022-08-22T21:47:14.768Z,17.35
2022-08-22T21:50:15.811Z,17.28
2022-08-22T21:52:55.928Z,17.30
2022-08-22T21:55:37.553Z,17.25
2022-08-22T21:58:07.341Z,17.21
2022-08-22T22:00:49.649Z,17.22
2022-08-22T22:03:19.303Z,17.17
2022-08-22T22:05:46.871Z,17.15
2022-08-22T22:08:13.490Z,17.14
2022-08-22T22:10:42.184Z,17.15
2022-08-22T22:13:09.037Z,17.14
2022-08-22T22:15:45.748Z,17.11
2022-08-22T22:18:14.587Z,17.07
2022-08-22T22:20:42.081Z,17.04
2022-08-22T22:23:09.512Z,17.01
2022-08-22T22:25:41.357Z,17.01
2022-08-22T22:28:14.657Z,16.99
2022-08-22T22:30:42.240Z,16.97
2022-08-22T22:33:09.467Z,16.95
2022-08-22T22:35:39.132Z,16.93
2022-08-22T22:38:06.351Z,16.91
2022-08-22T22:40:32.897Z,16.97
2022-08-22T22:42:59.372Z,16.95
2022-08-22T22:45:25.902Z,16.91
2022-08-22T22:47:52.748Z,16.90
2022-08-22T22:50:19.532Z,16.87
2022-08-22T22:52:45.990Z,16.88
2022-08-22T22:55:12.742Z,16.91
2022-08-22T22:57:58.463Z,16.87
2022-08-22T23:00:30.539Z,16.87
2022-08-22T23:02:59.089Z,16.83
2022-08-22T23:05:25.533Z,16.84
2022-08-22T23:07:51.911Z,16.84
2022-08-22T23:10:21.958Z,16.83
2022-08-22T23:12:48.898Z,16.84
2022-08-22T23:15:15.313Z,16.83
2022-08-22T23:17:42.550Z,16.83
2022-08-22T23:20:09.307Z,16.84
2022-08-22T23:22:35.776Z,16.83
2022-08-22T23:25:02.360Z,16.81
2022-08-22T23:27:28.900Z,16.83
2022-08-22T23:29:55.379Z,16.81
2022-08-22T23:32:21.755Z,16.80
2022-08-22T23:34:48.803Z,16.80
2022-08-22T23:37:20.448Z,16.80
2022-08-22T23:39:47.733Z,16.74
2022-08-22T23:42:15.178Z,16.71
2022-08-22T23:44:42.424Z,16.71
2022-08-22T23:47:10.135Z,16.74
2022-08-22T23:49:38.643Z,16.73
2022-08-22T23:52:06.905Z,16.73
2022-08-22T23:54:34.170Z,16.70
2022-08-22T23:57:11.599Z,16.64
2022-08-22T23:59:44.555Z,16.69
